Impacts METAR Board
IDs:

KBWI - Baltimore-Washington, MD, US

Updated at: 0100 UTC 24 Jun 2018
Potential Impact None Slight Moderate High
Time 23/13Z 23/14Z 23/15Z 23/16Z 23/17Z 23/18Z 23/19Z 23/20Z 23/21Z 23/22Z 23/23Z 24/00Z 24/01Z
Temp69 69 70 70 71 72 72 75 77 80 78 77 76
Dewpt68 68 68 69 69 69 70 71 71 71 71 72 72
Altim29.84 29.84 29.84 29.83 29.83 29.81 29.80 29.80 29.78 29.78 29.78 29.79 29.79
VIS2 4 3 4 6 6 6 7 10 10 10 10 10
CIG5 6 6 6 6 6 6 15 90 90 110 110 110
CoverOVCOVCOVCOVCOVCOVCOVCOVCBKNBKNBKNBKNBKN
FltCatIFRIFRIFRIFRIFRIFRIFRMVFRVFRVFRVFRVFRVFR
WX-DZ BRBRBRBRBRBRBR------------
WDir707090901000120000100130120
WSpd7 5 5 5 4 3 3 0 5 3 4 4 3
WGst-- -- -- -- -- -- -- -- -- -- -- -- --
Raw hourly METARs
KBWI 231254Z 07007KT 2SM -DZ BR OVC005 21/20 A2984 RMK AO2 DZB19 SLP103 P0000 T02060200
KBWI 231354Z 07005KT 4SM BR OVC006 21/20 A2984 RMK AO2 DZE53 SLP103 VIS N-NE 2 1/2 P0000 T02060200
KBWI 231454Z 09005KT 3SM BR OVC006 21/20 A2984 RMK AO2 DZB18E53 SLP104 P0000 60000 T02110200 53001
KBWI 231554Z 09005KT 4SM BR OVC006 21/21 A2983 RMK AO2 SLP101 T02110206
KBWI 231654Z 10004KT 6SM BR OVC006 22/21 A2983 RMK AO2 SLP099 T02170206
KBWI 231754Z VRB03KT 6SM BR OVC006 22/21 A2981 RMK AO2 SLP094 60000 T02220206 10222 20200 58009
KBWI 231854Z 12003KT 6SM BR BKN006 OVC010 22/21 A2980 RMK AO2 DZB21E44 SLP088 P0000 T02220211
KBWI 231954Z 00000KT 7SM SCT009 OVC015 24/22 A2980 RMK AO2 SLP089 T02390217
KBWI 232054Z VRB05KT 10SM FEW020 SCT035TCU BKN090 BKN180 25/22 A2978 RMK AO2 SLP084 TCU SW 60000 T02500217 56010
KBWI 232154Z VRB03KT 10SM SCT025 BKN090 BKN180 27/22 A2978 RMK AO2 SLP082 T02670217
KBWI 232254Z 10004KT 10SM FEW015 SCT040 BKN110 BKN250 26/22 A2978 RMK AO2 SLP082 T02560217
KBWI 232354Z 13004KT 10SM FEW040 BKN110 25/22 A2979 RMK AO2 SLP086 60000 T02500222 10267 20222 53002
KBWI 240054Z 12003KT 10SM SCT060 BKN110 24/22 A2979 RMK AO2 SLP086 T02440222



Page loaded:  01:18 UTC  |   06:18 PM Pacific  |   07:18 PM Mountain  |   08:18 PM Central  |   09:18 PM Eastern

 

ADVISORIES

FORECASTS

FORECASTS

OBSERVATIONS

USER TOOLS

ABOUT US